| time (UTC) | temp C | wind direction | speed KPH | gust KPH | rain 1hr cm | rain 24hr cm | rain mn cm | humidity % | barometer mb |
| 20260509112350 | 16 | 122 | 0.0 | 0.0 | 0.00 | 0.00 | 0.00 | 100 | 1016.4 |
| 20260509111319 | 16 | 122 | 0.0 | 0.0 | 0.00 | 0.00 | 0.00 | 100 | 1016.3 |
| 20260509110334 | 16 | 122 | 0.0 | 0.0 | 0.00 | 0.00 | 0.00 | 100 | 1016.2 |
| 20260509105321 | 16 | 122 | 0.0 | 0.0 | 0.00 | 0.00 | 0.00 | 100 | 1016.0 |
| 20260509104338 | 16 | 122 | 0.0 | 0.0 | 0.00 | 0.00 | 0.00 | 100 | 1015.9 |
| 20260509103328 | 16 | 122 | 0.0 | 0.0 | 0.00 | 0.00 | 0.00 | 100 | 1015.9 |
| 20260509102401 | 16 | 122 | 0.0 | 0.0 | 0.00 | 0.00 | 0.00 | 100 | 1015.5 |
| 20260509101329 | 16 | 122 | 0.0 | 0.0 | 0.00 | 0.00 | 0.00 | 100 | 1015.6 |
| 20260509100320 | 16 | 122 | 0.0 | 0.0 | 0.00 | 0.00 | 0.00 | 100 | 1015.7 |
| 20260509095334 | 16 | 122 | 0.0 | 0.0 | 0.00 | 0.00 | 0.00 | 100 | 1015.5 |
| 20260509094350 | 16 | 122 | 0.0 | 0.0 | 0.00 | 0.00 | 0.00 | 100 | 1015.8 |
| 20260509093320 | 16 | 122 | 0.0 | 0.0 | 0.00 | 0.00 | 0.00 | 100 | 1015.9 |
| 20260509092334 | 16 | 122 | 0.0 | 0.0 | 0.00 | 0.00 | 0.00 | 100 | 1015.8 |
| 20260509091351 | 16 | 122 | 0.0 | 0.0 | 0.00 | 0.00 | 0.00 | 100 | 1016.0 |
| 20260509090318 | 16 | 122 | 0.0 | 0.0 | 0.00 | 0.00 | 0.00 | 99 | 1016.1 |
| 20260509085331 | 16 | 122 | 0.0 | 0.0 | 0.00 | 0.00 | 0.00 | 99 | 1016.1 |
| 20260509084325 | 16 | 122 | 0.0 | 0.0 | 0.00 | 0.00 | 0.00 | 99 | 1016.0 |
| 20260509083342 | 16 | 122 | 0.0 | 0.0 | 0.00 | 0.00 | 0.00 | 99 | 1015.9 |
| 20260509082336 | 16 | 122 | 0.0 | 0.0 | 0.00 | 0.00 | 0.00 | 99 | 1015.8 |
| 20260509081343 | 16 | 122 | 0.0 | 0.0 | 0.00 | 0.00 | 0.00 | 99 | 1015.4 |
| 20260508235323 | 19 | 141 | 1.6 | 9.7 | 0.00 | 0.00 | 0.00 | 83 | 1018.1 |
| 20260508234336 | 19 | 110 | 6.4 | 9.7 | 0.00 | 0.00 | 0.00 | 82 | 1017.9 |
| 20260508233325 | 19 | 109 | 1.6 | 12.9 | 0.00 | 0.00 | 0.00 | 82 | 1017.8 |
| 20260508232340 | 20 | 129 | 3.2 | 8.0 | 0.00 | 0.00 | 0.00 | 82 | 1017.7 |
| 20260508231329 | 20 | 111 | 3.2 | 14.5 | 0.00 | 0.00 | 0.00 | 82 | 1017.7 |
| 20260508230341 | 20 | 135 | 4.8 | 12.9 | 0.00 | 0.00 | 0.00 | 82 | 1017.9 |
| 20260508225330 | 20 | 108 | 4.8 | 11.3 | 0.00 | 0.03 | 0.00 | 81 | 1018.1 |
| 20260508224344 | 20 | 116 | 1.6 | 12.9 | 0.00 | 0.03 | 0.00 | 82 | 1018.2 |
| 20260508223332 | 20 | 141 | 3.2 | 9.7 | 0.00 | 0.03 | 0.00 | 82 | 1017.4 |
| 20260508222318 | 20 | 143 | 6.4 | 12.9 | 0.00 | 0.03 | 0.00 | 81 | 1017.5 |
| 20260508221334 | 20 | 114 | 6.4 | 14.5 | 0.00 | 0.03 | 0.00 | 81 | 1017.3 |
| 20260508220324 | 21 | 135 | 4.8 | 14.5 | 0.00 | 0.03 | 0.00 | 81 | 1017.6 |
| 20260508215339 | 21 | 124 | 4.8 | 17.7 | 0.00 | 0.03 | 0.00 | 79 | 1017.6 |
| 20260508214326 | 21 | 144 | 4.8 | 14.5 | 0.00 | 0.03 | 0.00 | 79 | 1017.5 |
| 20260508213342 | 21 | 102 | 6.4 | 20.9 | 0.00 | 0.03 | 0.00 | 78 | 1017.5 |
| 20260508212331 | 22 | 117 | 9.7 | 20.9 | 0.00 | 0.03 | 0.00 | 78 | 1017.5 |
| 20260508211319 | 22 | 96 | 6.4 | 17.7 | 0.00 | 0.03 | 0.00 | 76 | 1017.7 |
| 20260508210334 | 22 | 104 | 8.0 | 16.1 | 0.00 | 0.03 | 0.00 | 75 | 1017.5 |
| 20260508205321 | 23 | 118 | 3.2 | 14.5 | 0.00 | 0.13 | 0.00 | 75 | 1017.5 |
| 20260508204354 | 23 | 119 | 4.8 | 11.3 | 0.00 | 0.13 | 0.00 | 69 | 1017.3 |
| 20260508203321 | 23 | 58 | 1.6 | 8.0 | 0.00 | 0.13 | 0.00 | 68 | 1017.2 |
| 20260508202337 | 23 | 108 | 1.6 | 6.4 | 0.00 | 0.13 | 0.00 | 66 | 1017.4 |
| 20260508201329 | 23 | 105 | 4.8 | 11.3 | 0.00 | 0.13 | 0.00 | 67 | 1017.2 |
| 20260508200400 | 23 | 60 | 1.6 | 8.0 | 0.00 | 0.13 | 0.00 | 68 | 1017.5 |
| 20260508195330 | 23 | 103 | 1.6 | 8.0 | 0.00 | 0.33 | 0.00 | 67 | 1017.7 |
| 20260508194317 | 23 | 58 | 1.6 | 8.0 | 0.00 | 0.33 | 0.00 | 69 | 1017.8 |
| 20260508193333 | 23 | 16 | 1.6 | 6.4 | 0.00 | 0.33 | 0.00 | 67 | 1018.1 |
| 20260508192317 | 23 | 106 | 4.8 | 8.0 | 0.00 | 0.33 | 0.00 | 65 | 1018.2 |
| 20260508191332 | 23 | 73 | 1.6 | 8.0 | 0.00 | 0.33 | 0.00 | 68 | 1018.2 |
| 20260508190349 | 23 | 42 | 1.6 | 8.0 | 0.00 | 0.33 | 0.00 | 67 | 1018.3 |
| 20260508185343 | 23 | 287 | 4.8 | 9.7 | 0.00 | 0.58 | 0.00 | 65 | 1018.6 |
| 20260508184331 | 23 | 113 | 3.2 | 12.9 | 0.00 | 0.58 | 0.00 | 65 | 1018.6 |
| 20260508183347 | 23 | 82 | 0.0 | 8.0 | 0.00 | 0.58 | 0.00 | 67 | 1018.8 |
| 20260508182339 | 23 | 139 | 3.2 | 8.0 | 0.00 | 0.58 | 0.00 | 67 | 1018.9 |
| 20260508181326 | 23 | 118 | 3.2 | 8.0 | 0.00 | 0.58 | 0.00 | 70 | 1018.9 |
| 20260508180339 | 22 | 52 | 3.2 | 8.0 | 0.00 | 0.58 | 0.00 | 69 | 1019.0 |
| 20260508175328 | 22 | 121 | 4.8 | 11.3 | 0.00 | 0.58 | 0.00 | 69 | 1019.4 |
| 20260508174343 | 22 | 127 | 1.6 | 9.7 | 0.00 | 0.58 | 0.00 | 68 | 1019.4 |
| 20260508173333 | 22 | 37 | 6.4 | 12.9 | 0.00 | 0.58 | 0.00 | 69 | 1019.6 |
| 20260508172321 | 22 | 52 | 3.2 | 8.0 | 0.00 | 0.58 | 0.00 | 67 | 1019.4 |
| 20260508171336 | 22 | 37 | 1.6 | 8.0 | 0.00 | 0.58 | 0.00 | 67 | 1019.6 |
| 20260508170326 | 22 | 51 | 4.8 | 11.3 | 0.00 | 0.58 | 0.00 | 72 | 1019.9 |
| 20260508165341 | 22 | 120 | 3.2 | 9.7 | 0.00 | 0.58 | 0.00 | 73 | 1019.9 |
| 20260508164328 | 21 | 62 | 1.6 | 14.5 | 0.00 | 0.58 | 0.00 | 70 | 1019.9 |
| 20260508163321 | 21 | 309 | 4.8 | 9.7 | 0.00 | 0.58 | 0.00 | 68 | 1020.1 |
| 20260508162334 | 21 | 101 | 9.7 | 16.1 | 0.00 | 0.58 | 0.00 | 68 | 1020.2 |
| 20260508161347 | 21 | 56 | 3.2 | 11.3 | 0.00 | 0.58 | 0.00 | 71 | 1020.4 |
| 20260508160342 | 21 | 115 | 6.4 | 14.5 | 0.00 | 0.58 | 0.00 | 71 | 1020.7 |
| 20260508155329 | 21 | 136 | 4.8 | 14.5 | 0.00 | 0.58 | 0.00 | 71 | 1020.9 |
| 20260508154404 | 21 | 104 | 0.0 | 12.9 | 0.00 | 0.58 | 0.00 | 73 | 1020.9 |
| 20260508153331 | 21 | 52 | 6.4 | 16.1 | 0.00 | 0.58 | 0.00 | 71 | 1020.9 |
| 20260508152319 | 20 | 16 | 3.2 | 14.5 | 0.00 | 0.58 | 0.00 | 72 | 1021.0 |
| 20260508151353 | 20 | 120 | 6.4 | 17.7 | 0.00 | 0.58 | 0.00 | 73 | 1020.9 |
| 20260508150322 | 21 | 28 | 3.2 | 14.5 | 0.00 | 0.58 | 0.00 | 74 | 1020.9 |
| 20260508145335 | 20 | 185 | 1.6 | 16.1 | 0.00 | 0.58 | 0.00 | 74 | 1020.9 |
| 20260508144327 | 20 | 317 | 6.4 | 16.1 | 0.00 | 0.58 | 0.00 | 76 | 1020.9 |
| 20260508143320 | 19 | 57 | 3.2 | 14.5 | 0.00 | 0.58 | 0.00 | 80 | 1020.7 |
| 20260508142335 | 19 | 310 | 3.2 | 12.9 | 0.00 | 0.58 | 0.00 | 79 | 1020.8 |
| 20260508141349 | 19 | 33 | 3.2 | 11.3 | 0.00 | 0.58 | 0.00 | 81 | 1020.7 |
| 20260508140343 | 18 | 44 | 4.8 | 9.7 | 0.00 | 0.58 | 0.00 | 82 | 1020.7 |
| 20260508135331 | 17 | 135 | 3.2 | 12.9 | 0.00 | 0.58 | 0.00 | 85 | 1020.7 |
| 20260508134344 | 17 | 87 | 1.6 | 14.5 | 0.00 | 0.58 | 0.00 | 87 | 1020.7 |
| 20260508133333 | 17 | 242 | 0.0 | 11.3 | 0.00 | 0.58 | 0.00 | 90 | 1020.4 |
| 20260508132345 | 16 | 98 | 0.0 | 11.3 | 0.00 | 0.58 | 0.00 | 92 | 1020.3 |
| 20260508131339 | 16 | 154 | 3.2 | 12.9 | 0.00 | 0.58 | 0.00 | 93 | 1020.2 |
| 20260508130326 | 16 | 131 | 4.8 | 11.3 | 0.00 | 0.58 | 0.00 | 95 | 1020.0 |
| 20260508125339 | 15 | 40 | 1.6 | 9.7 | 0.00 | 0.58 | 0.00 | 97 | 1020.1 |
| 20260508124329 | 15 | 60 | 1.6 | 11.3 | 0.00 | 0.58 | 0.00 | 99 | 1020.0 |
| 20260508123344 | 15 | 4 | 0.0 | 8.0 | 0.00 | 0.58 | 0.00 | 100 | 1019.9 |
| 20260508122329 | 15 | 55 | 1.6 | 11.3 | 0.00 | 0.58 | 0.00 | 100 | 1019.7 |
| 20260508121343 | 15 | 66 | 0.0 | 0.0 | 0.00 | 0.58 | 0.00 | 100 | 1019.5 |
| 20260508120331 | 15 | 67 | 0.0 | 6.4 | 0.00 | 0.58 | 0.00 | 100 | 1019.4 |
| 20260508115320 | 14 | 67 | 0.0 | 6.4 | 0.00 | 0.58 | 0.00 | 100 | 1019.4 |
| 20260508114332 | 14 | 68 | 1.6 | 6.4 | 0.00 | 0.58 | 0.00 | 100 | 1019.1 |
| 20260508113319 | 14 | 73 | 0.0 | 1.6 | 0.00 | 0.58 | 0.00 | 100 | 1018.9 |